createdAt,value
2023-02-16T00:00:48.123Z,20.07
2023-02-16T00:03:22.082Z,19.70
2023-02-16T00:05:50.569Z,19.70
2023-02-16T00:08:17.847Z,20.50
2023-02-16T00:11:06.292Z,19.70
2023-02-16T00:13:44.853Z,20.33
2023-02-16T00:16:24.668Z,20.47
2023-02-16T00:18:52.807Z,20.83
2023-02-16T00:21:20.545Z,18.93
2023-02-16T00:23:48.708Z,20.07
2023-02-16T00:26:22.832Z,19.50
2023-02-16T00:28:58.645Z,18.40
2023-02-16T00:31:32.356Z,20.53
2023-02-16T00:34:14.178Z,20.30
2023-02-16T00:36:43.697Z,20.60
2023-02-16T00:39:10.624Z,19.10
2023-02-16T00:41:55.077Z,18.47
2023-02-16T00:44:41.702Z,19.30
2023-02-16T00:47:21.980Z,19.00
2023-02-16T00:49:54.122Z,19.30
2023-02-16T00:52:37.122Z,19.00
2023-02-16T00:55:13.618Z,19.60
2023-02-16T00:58:18.538Z,18.90
2023-02-16T01:00:55.632Z,18.87
2023-02-16T01:03:29.066Z,19.40
2023-02-16T01:06:15.362Z,19.43
2023-02-16T01:09:01.607Z,20.20
2023-02-16T01:11:29.980Z,21.20
2023-02-16T01:13:58.467Z,21.67
2023-02-16T01:16:37.397Z,20.40
2023-02-16T01:19:07.240Z,25.63
2023-02-16T01:21:34.228Z,20.77
2023-02-16T01:24:03.283Z,21.40
2023-02-16T01:26:32.626Z,20.70
2023-02-16T01:29:02.994Z,20.07
2023-02-16T01:31:30.010Z,20.20
2023-02-16T01:33:56.975Z,21.50
2023-02-16T01:36:30.044Z,21.57
2023-02-16T01:38:56.996Z,20.70
2023-02-16T01:42:04.488Z,20.70
2023-02-16T01:44:46.134Z,20.73
2023-02-16T01:47:36.930Z,20.43
2023-02-16T01:50:22.232Z,21.20
2023-02-16T01:53:02.923Z,23.20
2023-02-16T01:55:42.440Z,22.97
2023-02-16T01:58:31.849Z,21.10
2023-02-16T02:00:58.899Z,20.03
2023-02-16T02:03:54.664Z,21.63
2023-02-16T02:06:33.617Z,21.80
2023-02-16T02:09:11.721Z,21.47
2023-02-16T02:12:13.121Z,20.37
2023-02-16T02:14:40.735Z,21.60
2023-02-16T02:17:16.527Z,21.30
2023-02-16T02:20:05.458Z,21.03
2023-02-16T02:23:33.624Z,21.57
2023-02-16T02:26:40.721Z,20.43
2023-02-16T02:29:27.618Z,21.70
2023-02-16T02:32:17.978Z,21.67
2023-02-16T02:34:56.987Z,19.90
2023-02-16T02:37:57.335Z,21.57
2023-02-16T02:40:34.290Z,21.63
2023-02-16T02:43:25.190Z,23.30
2023-02-16T02:46:01.844Z,21.63
2023-02-16T02:48:33.709Z,21.47
2023-02-16T02:51:28.550Z,20.33
2023-02-16T02:54:20.666Z,20.63
2023-02-16T02:57:12.732Z,21.93
2023-02-16T03:00:01.950Z,22.30
2023-02-16T03:02:31.540Z,21.47
2023-02-16T03:05:00.025Z,21.97
2023-02-16T03:07:51.450Z,21.23
2023-02-16T03:10:44.915Z,24.17
2023-02-16T03:13:35.166Z,22.17
2023-02-16T03:16:14.346Z,22.13
2023-02-16T03:19:05.194Z,22.47
2023-02-16T03:21:52.444Z,21.27
2023-02-16T03:24:48.674Z,21.10
2023-02-16T03:27:40.979Z,21.60
2023-02-16T03:30:12.200Z,22.67
2023-02-16T03:32:42.200Z,22.27
2023-02-16T03:35:12.797Z,23.10
2023-02-16T03:37:46.976Z,22.70
2023-02-16T03:40:30.913Z,23.47
2023-02-16T03:43:04.624Z,21.57
2023-02-16T03:45:35.179Z,21.10
2023-02-16T03:48:02.544Z,23.23
2023-02-16T03:50:29.964Z,21.90
2023-02-16T03:53:09.126Z,22.47
2023-02-16T03:55:38.428Z,24.00
2023-02-16T03:58:10.583Z,22.97
2023-02-16T04:00:38.279Z,22.50
2023-02-16T04:03:05.992Z,22.50
2023-02-16T04:05:33.669Z,21.80
2023-02-16T04:08:00.763Z,23.10
2023-02-16T04:10:27.879Z,23.00
2023-02-16T04:12:54.807Z,24.17
2023-02-16T04:15:26.272Z,24.97
2023-02-16T04:17:54.062Z,25.13
2023-02-16T04:20:25.643Z,24.23
2023-02-16T04:22:56.154Z,23.87
2023-02-16T04:25:23.427Z,25.00
2023-02-16T04:27:55.710Z,23.43
2023-02-16T04:30:30.604Z,24.90
2023-02-16T04:32:58.738Z,24.23
2023-02-16T04:35:25.700Z,22.93
2023-02-16T04:37:57.229Z,25.20
2023-02-16T04:40:24.149Z,23.83
2023-02-16T04:42:51.102Z,23.80
2023-02-16T04:45:18.034Z,23.40
2023-02-16T04:47:47.900Z,23.10
2023-02-16T04:50:14.823Z,22.00
2023-02-16T04:52:42.253Z,22.77
2023-02-16T04:55:12.273Z,23.60
2023-02-16T04:57:40.264Z,23.10
2023-02-16T05:00:13.159Z,24.07
2023-02-16T05:02:47.037Z,23.90
2023-02-16T05:05:16.112Z,22.47
2023-02-16T05:07:45.666Z,23.77
2023-02-16T05:10:12.633Z,25.43
2023-02-16T05:12:58.026Z,24.43
2023-02-16T05:15:25.001Z,23.93
2023-02-16T05:17:56.625Z,25.03
2023-02-16T05:20:45.791Z,24.73
2023-02-16T05:23:12.729Z,24.90
2023-02-16T05:25:42.092Z,24.63
2023-02-16T05:28:09.146Z,24.57
2023-02-16T05:30:40.859Z,25.63
2023-02-16T05:33:10.205Z,26.93
2023-02-16T05:35:39.643Z,24.40
2023-02-16T05:38:11.139Z,24.57
2023-02-16T05:40:38.034Z,25.10
2023-02-16T05:43:07.365Z,24.37
2023-02-16T05:45:34.256Z,25.20
2023-02-16T05:48:01.109Z,27.17
2023-02-16T05:50:32.564Z,24.93
2023-02-16T05:53:02.470Z,26.70
2023-02-16T05:55:29.370Z,26.03
2023-02-16T05:57:56.339Z,26.10
2023-02-16T06:00:25.776Z,28.10
2023-02-16T06:02:57.284Z,27.27
2023-02-16T06:05:26.711Z,27.40
2023-02-16T06:07:53.530Z,29.13
2023-02-16T06:10:20.487Z,27.90
2023-02-16T06:12:50.369Z,27.70
2023-02-16T06:15:18.015Z,28.73
2023-02-16T06:17:44.941Z,27.90
2023-02-16T06:20:12.167Z,29.40
2023-02-16T06:22:38.988Z,30.43
2023-02-16T06:25:08.455Z,29.67
2023-02-16T06:27:35.386Z,30.03
2023-02-16T06:30:02.886Z,29.43
2023-02-16T06:32:29.951Z,29.47
2023-02-16T06:35:01.960Z,29.83
2023-02-16T06:37:28.873Z,28.97
2023-02-16T06:39:55.773Z,30.57
2023-02-16T06:42:22.672Z,30.30
2023-02-16T06:44:52.576Z,30.13
2023-02-16T06:47:19.471Z,29.53
2023-02-16T06:49:46.299Z,29.37
2023-02-16T06:52:13.237Z,29.67
2023-02-16T06:54:40.099Z,30.30
2023-02-16T06:57:09.146Z,30.27
2023-02-16T06:59:36.008Z,29.13
2023-02-16T07:02:06.096Z,29.30
2023-02-16T07:04:35.999Z,29.10
2023-02-16T07:07:03.798Z,32.90
2023-02-16T07:09:30.731Z,32.67
2023-02-16T07:11:58.395Z,30.43
2023-02-16T07:14:25.257Z,31.90
2023-02-16T07:16:54.637Z,30.93
2023-02-16T07:19:21.486Z,30.60
2023-02-16T07:21:50.911Z,32.07
2023-02-16T07:24:17.870Z,31.53
2023-02-16T07:26:44.700Z,31.27
2023-02-16T07:29:16.081Z,31.60
2023-02-16T07:31:48.676Z,31.90
2023-02-16T07:34:19.650Z,33.27
2023-02-16T07:36:52.225Z,31.50
2023-02-16T07:39:19.564Z,31.27
2023-02-16T07:41:46.496Z,30.97
2023-02-16T07:44:13.398Z,33.70
2023-02-16T07:46:40.411Z,33.50
2023-02-16T07:49:07.304Z,29.93
2023-02-16T07:51:35.064Z,32.97
2023-02-16T07:54:01.957Z,31.83
2023-02-16T07:56:31.610Z,33.87
2023-02-16T07:59:05.456Z,30.93
2023-02-16T08:01:35.277Z,32.43
2023-02-16T08:04:02.146Z,33.00
2023-02-16T08:06:29.040Z,30.60
2023-02-16T08:08:58.672Z,31.30
2023-02-16T08:11:28.359Z,32.30
2023-02-16T08:13:55.421Z,31.43
2023-02-16T08:16:27.293Z,31.70
2023-02-16T08:18:58.787Z,31.30
2023-02-16T08:21:29.933Z,33.13
2023-02-16T08:24:06.242Z,31.30
2023-02-16T08:26:44.996Z,32.50
2023-02-16T08:29:17.973Z,33.97
2023-02-16T08:31:50.517Z,31.33
2023-02-16T08:34:20.395Z,33.23
2023-02-16T08:36:56.452Z,31.80
2023-02-16T08:39:29.882Z,31.73
2023-02-16T08:41:59.244Z,33.67
2023-02-16T08:44:28.966Z,32.50
2023-02-16T08:47:01.504Z,32.10
2023-02-16T08:49:28.497Z,33.17
2023-02-16T08:51:58.628Z,32.90
2023-02-16T08:54:30.664Z,33.27
2023-02-16T08:56:59.991Z,33.77
2023-02-16T08:59:28.750Z,33.00
2023-02-16T09:02:00.215Z,32.03
2023-02-16T09:04:31.014Z,34.87
2023-02-16T09:06:59.682Z,32.63
2023-02-16T09:09:27.981Z,31.80
2023-02-16T09:11:59.660Z,33.43
2023-02-16T09:14:31.344Z,33.83
2023-02-16T09:17:00.751Z,33.33
2023-02-16T09:19:30.139Z,32.47
2023-02-16T09:21:57.055Z,31.80
2023-02-16T09:24:23.947Z,30.93
2023-02-16T09:26:53.439Z,34.20
2023-02-16T09:29:24.830Z,31.37
2023-02-16T09:31:52.345Z,32.50
2023-02-16T09:34:22.677Z,31.70
2023-02-16T09:36:50.824Z,33.47
2023-02-16T09:39:20.759Z,32.10
2023-02-16T09:42:05.792Z,31.17
2023-02-16T09:44:45.412Z,32.97
2023-02-16T09:47:33.068Z,32.77
2023-02-16T09:50:13.274Z,29.17
2023-02-16T09:52:58.018Z,31.60
2023-02-16T09:55:32.452Z,30.17
2023-02-16T09:58:25.444Z,33.23
2023-02-16T10:01:25.050Z,31.00
2023-02-16T10:04:13.002Z,31.47
2023-02-16T10:06:54.387Z,32.03
2023-02-16T10:09:22.091Z,32.20
2023-02-16T10:12:04.198Z,31.20
2023-02-16T10:14:50.093Z,29.83
2023-02-16T10:17:32.659Z,30.70
2023-02-16T10:20:06.356Z,29.40
2023-02-16T10:22:47.356Z,30.77
2023-02-16T10:25:37.651Z,29.70
2023-02-16T10:28:28.879Z,30.50
2023-02-16T10:31:06.228Z,32.47
2023-02-16T10:33:53.394Z,32.10
2023-02-16T10:36:55.357Z,31.23
2023-02-16T10:39:29.710Z,30.67
2023-02-16T10:42:27.156Z,29.47
2023-02-16T10:45:24.133Z,30.67
2023-02-16T10:47:56.762Z,29.63
2023-02-16T10:50:43.060Z,31.50
2023-02-16T10:53:21.104Z,30.33
2023-02-16T10:55:50.084Z,29.60
2023-02-16T10:58:29.210Z,29.07
2023-02-16T11:01:08.518Z,30.70
2023-02-16T11:03:46.679Z,28.87
2023-02-16T11:06:18.885Z,28.90
2023-02-16T11:08:59.222Z,29.27
2023-02-16T11:11:28.270Z,29.70
2023-02-16T11:14:23.939Z,30.23
2023-02-16T11:17:13.515Z,29.50
2023-02-16T11:19:50.481Z,29.87
2023-02-16T11:22:31.313Z,28.27
2023-02-16T11:25:22.669Z,29.20
2023-02-16T11:27:58.624Z,30.07
2023-02-16T11:30:41.511Z,30.30
2023-02-16T11:33:27.689Z,30.63
2023-02-16T11:35:55.938Z,30.80
2023-02-16T11:38:33.993Z,29.37
2023-02-16T11:41:05.074Z,29.30
2023-02-16T11:43:44.000Z,29.23
2023-02-16T11:46:20.678Z,28.60
2023-02-16T11:48:55.377Z,30.17
2023-02-16T11:51:36.482Z,30.07
2023-02-16T11:54:06.297Z,30.37
2023-02-16T11:56:37.899Z,29.70
2023-02-16T11:59:24.884Z,28.60
2023-02-16T12:02:31.730Z,28.27
2023-02-16T12:05:17.118Z,29.00
2023-02-16T12:08:10.724Z,29.40
2023-02-16T12:11:18.696Z,28.23
2023-02-16T12:14:36.386Z,28.63
2023-02-16T12:17:33.607Z,29.10
2023-02-16T12:20:17.309Z,29.70
2023-02-16T12:22:50.048Z,27.57
2023-02-16T12:25:27.134Z,30.73
2023-02-16T12:28:37.318Z,29.63
2023-02-16T12:31:31.495Z,29.17
2023-02-16T12:34:30.277Z,29.70
2023-02-16T12:37:18.027Z,30.90
2023-02-16T12:40:02.794Z,29.63
2023-02-16T12:42:55.283Z,29.50
2023-02-16T12:45:32.448Z,31.13
2023-02-16T12:48:11.494Z,29.37
2023-02-16T12:50:42.303Z,28.70
2023-02-16T12:53:27.499Z,29.50
2023-02-16T12:55:59.182Z,30.07
2023-02-16T12:58:32.406Z,29.70
2023-02-16T13:01:21.748Z,28.40
2023-02-16T13:04:14.491Z,30.30
2023-02-16T13:06:55.851Z,30.13
2023-02-16T13:09:53.379Z,30.27
2023-02-16T13:12:51.768Z,28.70
2023-02-16T13:16:29.152Z,29.00
2023-02-16T13:19:01.790Z,29.40
2023-02-16T13:21:51.226Z,28.83
2023-02-16T13:24:36.765Z,30.77
2023-02-16T13:27:25.052Z,30.00
2023-02-16T13:30:16.948Z,31.30
2023-02-16T13:32:45.061Z,30.60
2023-02-16T13:35:22.719Z,30.43
2023-02-16T13:38:23.298Z,30.23
2023-02-16T13:41:11.700Z,30.00
2023-02-16T13:44:12.323Z,29.63
2023-02-16T13:46:50.202Z,31.10
2023-02-16T13:49:29.148Z,30.73
2023-02-16T13:51:56.339Z,29.57
2023-02-16T13:54:40.205Z,30.23
2023-02-16T13:57:18.374Z,32.40
2023-02-16T13:59:58.476Z,33.07
2023-02-16T14:02:54.813Z,32.40
2023-02-16T14:05:35.212Z,33.60
2023-02-16T14:08:13.534Z,33.07
2023-02-16T14:10:55.467Z,31.30
2023-02-16T14:13:33.671Z,33.80
2023-02-16T14:16:17.351Z,33.53
2023-02-16T14:18:54.621Z,33.07
2023-02-16T14:21:48.250Z,32.20
2023-02-16T14:24:34.002Z,33.43
2023-02-16T14:27:09.632Z,30.40
2023-02-16T14:29:44.459Z,32.77
2023-02-16T14:32:39.290Z,33.10
2023-02-16T14:35:17.036Z,33.00
2023-02-16T14:37:55.166Z,34.13
2023-02-16T14:40:40.827Z,33.50
2023-02-16T14:43:24.992Z,34.70
2023-02-16T14:46:27.963Z,33.67
2023-02-16T14:49:43.192Z,32.90
2023-02-16T14:52:40.495Z,32.20
2023-02-16T14:55:18.243Z,32.87
2023-02-16T14:57:57.108Z,31.93
2023-02-16T15:00:29.098Z,32.43
2023-02-16T15:03:29.858Z,30.83
2023-02-16T15:06:06.657Z,32.70
2023-02-16T15:08:48.561Z,31.97
2023-02-16T15:12:10.452Z,31.87
2023-02-16T15:14:59.130Z,31.00
2023-02-16T15:17:39.930Z,31.10
2023-02-16T15:20:28.507Z,33.07
2023-02-16T15:23:01.399Z,31.77
2023-02-16T15:25:34.935Z,33.47
2023-02-16T15:28:12.723Z,32.60
2023-02-16T15:30:44.556Z,32.20
2023-02-16T15:33:27.296Z,31.87
2023-02-16T15:36:15.026Z,33.20
2023-02-16T15:38:54.814Z,32.27
2023-02-16T15:41:38.295Z,31.30
2023-02-16T15:44:17.774Z,32.03
2023-02-16T15:46:48.368Z,32.10
2023-02-16T15:49:28.341Z,33.43
2023-02-16T15:51:57.482Z,33.30
2023-02-16T15:54:35.536Z,32.90
2023-02-16T15:57:21.362Z,32.20
2023-02-16T15:59:52.963Z,32.07
2023-02-16T16:02:27.138Z,33.30
2023-02-16T16:05:05.864Z,33.03
2023-02-16T16:07:42.940Z,34.23
2023-02-16T16:10:27.072Z,32.70
2023-02-16T16:13:03.663Z,31.83
2023-02-16T16:15:36.058Z,32.17
2023-02-16T16:18:06.757Z,30.87
2023-02-16T16:20:38.517Z,31.73
2023-02-16T16:23:17.526Z,32.60
2023-02-16T16:25:49.010Z,33.40
2023-02-16T16:28:27.990Z,32.60
2023-02-16T16:31:17.521Z,34.40
2023-02-16T16:34:07.447Z,34.37
2023-02-16T16:36:46.849Z,33.60
2023-02-16T16:39:16.743Z,32.23
2023-02-16T16:42:16.416Z,33.83
2023-02-16T16:44:56.472Z,35.20
2023-02-16T16:47:34.435Z,36.30
2023-02-16T16:50:10.563Z,38.00
2023-02-16T16:52:52.485Z,35.53
2023-02-16T16:55:19.279Z,36.27
2023-02-16T16:57:53.734Z,36.77
2023-02-16T17:00:22.241Z,37.80
2023-02-16T17:02:50.033Z,38.90
2023-02-16T17:05:17.312Z,35.50
2023-02-16T17:07:48.890Z,37.73
2023-02-16T17:10:20.057Z,38.10
2023-02-16T17:12:52.015Z,39.07
2023-02-16T17:15:56.493Z,37.23
2023-02-16T17:18:29.123Z,36.70
2023-02-16T17:20:58.791Z,41.07
2023-02-16T17:23:28.065Z,41.47
2023-02-16T17:25:54.968Z,41.23
2023-02-16T17:28:22.123Z,41.30
2023-02-16T17:30:51.589Z,41.47
2023-02-16T17:33:18.507Z,41.80
2023-02-16T17:35:47.914Z,43.70
2023-02-16T17:38:22.863Z,44.37
2023-02-16T17:40:54.396Z,43.87
2023-02-16T17:43:25.726Z,44.07
2023-02-16T17:45:59.472Z,41.93
2023-02-16T17:48:30.383Z,45.10
2023-02-16T17:51:00.474Z,44.13
2023-02-16T17:53:32.856Z,44.57
2023-02-16T17:56:01.801Z,46.23
2023-02-16T17:58:28.715Z,44.07
2023-02-16T18:00:57.733Z,46.73
2023-02-16T18:03:27.682Z,48.27
2023-02-16T18:05:55.438Z,44.37
2023-02-16T18:08:22.874Z,44.83
2023-02-16T18:10:53.807Z,44.70
2023-02-16T18:13:20.843Z,44.87
2023-02-16T18:15:50.145Z,42.60
2023-02-16T18:18:20.151Z,40.40
2023-02-16T18:20:47.997Z,44.80
2023-02-16T18:23:15.369Z,44.03
2023-02-16T18:25:44.062Z,41.03
2023-02-16T18:28:20.935Z,39.90
2023-02-16T18:30:49.246Z,37.40
2023-02-16T18:33:23.214Z,35.40
2023-02-16T18:36:00.335Z,37.03
2023-02-16T18:38:27.755Z,35.43
2023-02-16T18:40:55.446Z,37.50
2023-02-16T18:43:23.176Z,36.47
2023-02-16T18:45:52.728Z,36.87
2023-02-16T18:48:21.761Z,35.83
2023-02-16T18:50:50.916Z,36.97
2023-02-16T18:53:22.978Z,37.77
2023-02-16T18:55:52.386Z,39.23
2023-02-16T18:58:19.744Z,41.50
2023-02-16T19:00:49.696Z,41.37
2023-02-16T19:03:16.772Z,41.67
2023-02-16T19:05:43.835Z,43.67
2023-02-16T19:08:10.854Z,44.20
2023-02-16T19:10:40.304Z,43.83
2023-02-16T19:13:10.348Z,41.90
2023-02-16T19:15:41.611Z,41.90
2023-02-16T19:18:08.534Z,41.13
2023-02-16T19:20:39.001Z,41.80
2023-02-16T19:23:10.409Z,41.37
2023-02-16T19:25:37.323Z,42.97
2023-02-16T19:28:04.509Z,42.33
2023-02-16T19:30:31.546Z,42.40
2023-02-16T19:33:00.866Z,45.53
2023-02-16T19:35:27.791Z,42.43
2023-02-16T19:37:57.113Z,45.40
2023-02-16T19:40:28.522Z,47.07
2023-02-16T19:42:57.776Z,45.43
2023-02-16T19:45:24.957Z,46.10
2023-02-16T19:47:51.885Z,45.80
2023-02-16T19:50:21.448Z,46.00
2023-02-16T19:52:48.355Z,47.53
2023-02-16T19:55:15.260Z,46.80
2023-02-16T19:57:44.353Z,46.83
2023-02-16T20:00:14.076Z,47.80
2023-02-16T20:02:41.005Z,48.67
2023-02-16T20:05:13.439Z,48.07
2023-02-16T20:07:40.504Z,46.63
2023-02-16T20:10:11.166Z,47.10
2023-02-16T20:12:38.136Z,48.20
2023-02-16T20:15:08.886Z,47.87
2023-02-16T20:17:35.857Z,50.00
2023-02-16T20:20:09.223Z,49.20
2023-02-16T20:22:38.225Z,47.50
2023-02-16T20:25:07.740Z,49.30
2023-02-16T20:27:35.001Z,49.90
2023-02-16T20:30:07.791Z,50.70
2023-02-16T20:32:36.897Z,49.43
2023-02-16T20:35:09.707Z,48.37
2023-02-16T20:37:41.219Z,47.90
2023-02-16T20:40:11.135Z,50.27
2023-02-16T20:42:38.051Z,48.67
2023-02-16T20:45:05.522Z,53.23
2023-02-16T20:47:32.461Z,49.40
2023-02-16T20:50:02.382Z,51.93
2023-02-16T20:52:34.470Z,53.17
2023-02-16T20:55:01.491Z,52.40
2023-02-16T20:57:28.404Z,50.40
2023-02-16T20:59:57.941Z,52.40
2023-02-16T21:02:24.912Z,52.60
2023-02-16T21:04:54.457Z,52.03
2023-02-16T21:07:21.374Z,49.67
2023-02-16T21:09:48.304Z,53.20
2023-02-16T21:12:20.038Z,50.00
2023-02-16T21:14:51.418Z,53.53
2023-02-16T21:17:18.540Z,50.63
2023-02-16T21:19:45.697Z,53.03
2023-02-16T21:22:17.308Z,52.97
2023-02-16T21:24:46.753Z,52.80
2023-02-16T21:27:16.659Z,53.23
2023-02-16T21:29:43.792Z,50.93
2023-02-16T21:32:13.904Z,53.27
2023-02-16T21:34:40.947Z,50.00
2023-02-16T21:37:14.912Z,51.30
2023-02-16T21:40:02.660Z,53.30
2023-02-16T21:42:32.088Z,50.80
2023-02-16T21:45:13.905Z,48.80
2023-02-16T21:48:05.885Z,48.90
2023-02-16T21:50:39.882Z,50.53
2023-02-16T21:53:10.036Z,49.73
2023-02-16T21:55:58.841Z,46.37
2023-02-16T21:58:30.161Z,47.70
2023-02-16T22:01:00.609Z,46.13
2023-02-16T22:03:28.262Z,45.00
2023-02-16T22:05:55.255Z,43.33
2023-02-16T22:08:22.120Z,44.30
2023-02-16T22:10:56.105Z,44.03
2023-02-16T22:13:23.023Z,42.73
2023-02-16T22:15:52.082Z,43.20
2023-02-16T22:18:21.036Z,41.00
2023-02-16T22:20:52.605Z,41.13
2023-02-16T22:23:22.119Z,40.37
2023-02-16T22:25:51.463Z,38.77
2023-02-16T22:28:20.420Z,38.77
2023-02-16T22:30:50.346Z,38.60
2023-02-16T22:33:17.261Z,39.37
2023-02-16T22:35:48.815Z,38.97
2023-02-16T22:38:16.926Z,36.97
2023-02-16T22:40:43.902Z,38.10
2023-02-16T22:43:13.225Z,37.17
2023-02-16T22:45:40.170Z,38.50
2023-02-16T22:48:10.066Z,38.40
2023-02-16T22:50:41.529Z,37.57
2023-02-16T22:53:11.613Z,38.37
2023-02-16T22:55:41.749Z,40.30
2023-02-16T22:58:11.006Z,39.23
2023-02-16T23:00:40.470Z,40.67
2023-02-16T23:03:09.372Z,40.20
2023-02-16T23:05:36.297Z,37.20
2023-02-16T23:08:05.512Z,38.97
2023-02-16T23:10:37.785Z,38.43
2023-02-16T23:13:10.578Z,41.87
2023-02-16T23:15:37.894Z,41.57
2023-02-16T23:18:04.880Z,42.10
2023-02-16T23:20:34.235Z,39.90
2023-02-16T23:23:01.137Z,40.57
2023-02-16T23:25:33.672Z,41.57
2023-02-16T23:28:06.363Z,38.20
2023-02-16T23:30:33.372Z,39.77
2023-02-16T23:33:02.418Z,39.23
2023-02-16T23:35:34.172Z,38.80
2023-02-16T23:38:02.779Z,37.80
2023-02-16T23:40:32.351Z,38.13
2023-02-16T23:43:01.799Z,38.17
2023-02-16T23:45:31.248Z,37.07
2023-02-16T23:47:58.201Z,37.13
2023-02-16T23:50:31.241Z,33.70
2023-02-16T23:52:58.112Z,35.23
2023-02-16T23:55:25.059Z,35.93
2023-02-16T23:57:54.169Z,35.70
